createdAt,value
2022-11-23T00:00:11.250Z,98132.00
2022-11-23T00:01:15.416Z,98131.88
2022-11-23T00:02:17.000Z,98125.88
2022-11-23T00:03:18.502Z,98124.09
2022-11-23T00:04:20.096Z,98124.31
2022-11-23T00:05:21.615Z,98119.34
2022-11-23T00:06:24.615Z,98125.47
2022-11-23T00:07:26.179Z,98119.34
2022-11-23T00:08:27.711Z,98123.47
2022-11-23T00:09:29.382Z,98125.97
2022-11-23T00:10:31.029Z,98118.09
2022-11-23T00:11:33.542Z,98125.47
2022-11-23T00:12:35.014Z,98120.38
2022-11-23T00:13:36.452Z,98123.69
2022-11-23T00:14:37.889Z,98120.28
2022-11-23T00:15:40.447Z,98116.94
2022-11-23T00:16:41.936Z,98118.94
2022-11-23T00:17:43.422Z,98121.28
2022-11-23T00:18:45.321Z,98125.13
2022-11-23T00:19:46.796Z,98123.03
2022-11-23T00:20:48.286Z,98119.00
2022-11-23T00:21:49.763Z,98118.16
2022-11-23T00:22:51.268Z,98116.19
2022-11-23T00:23:52.792Z,98120.44
2022-11-23T00:24:54.313Z,98116.31
2022-11-23T00:25:55.785Z,98120.56
2022-11-23T00:26:57.131Z,98120.56
2022-11-23T00:27:58.621Z,98112.88
2022-11-23T00:29:00.118Z,98118.38
2022-11-23T00:30:01.937Z,98120.25
2022-11-23T00:31:03.434Z,98112.38
2022-11-23T00:32:05.078Z,98119.22
2022-11-23T00:33:06.566Z,98119.94
2022-11-23T00:34:08.060Z,98119.31
2022-11-23T00:35:09.542Z,98120.34
2022-11-23T00:36:11.960Z,98128.09
2022-11-23T00:37:13.433Z,98121.47
2022-11-23T00:38:14.897Z,98127.47
2022-11-23T00:39:16.674Z,98124.28
2022-11-23T00:40:18.581Z,98120.84
2022-11-23T00:41:25.671Z,98119.69
2022-11-23T00:42:27.161Z,98123.66
2022-11-23T00:43:30.155Z,98128.94
2022-11-23T00:44:32.315Z,98123.13
2022-11-23T00:45:33.794Z,98126.56
2022-11-23T00:46:36.220Z,98127.38
2022-11-23T00:47:39.530Z,98136.19
2022-11-23T00:48:41.217Z,98133.50
2022-11-23T00:49:42.765Z,98122.91
2022-11-23T00:50:44.685Z,98127.94
2022-11-23T00:51:46.195Z,98128.66
2022-11-23T00:52:48.040Z,98135.19
2022-11-23T00:53:50.344Z,98129.78
2022-11-23T00:54:51.854Z,98127.00
2022-11-23T00:55:54.340Z,98129.28
2022-11-23T00:56:56.027Z,98130.00
2022-11-23T00:57:58.382Z,98118.59
2022-11-23T00:59:01.700Z,98123.56
2022-11-23T01:00:04.840Z,98115.59
2022-11-23T01:01:12.527Z,98112.91
2022-11-23T01:02:14.072Z,98122.25
2022-11-23T01:03:16.325Z,98111.97
2022-11-23T01:04:18.092Z,98124.84
2022-11-23T01:05:19.563Z,98122.88
2022-11-23T01:06:23.852Z,98125.34
2022-11-23T01:07:28.098Z,98122.75
2022-11-23T01:08:32.651Z,98127.72
2022-11-23T01:09:34.209Z,98125.03
2022-11-23T01:10:35.742Z,98120.56
2022-11-23T01:11:37.471Z,98119.75
2022-11-23T01:12:38.932Z,98120.56
2022-11-23T01:13:41.912Z,98119.75
2022-11-23T01:14:43.430Z,98121.50
2022-11-23T01:15:51.307Z,98119.84
2022-11-23T01:16:54.213Z,98121.63
2022-11-23T01:17:55.658Z,98112.16
2022-11-23T01:19:05.488Z,98116.53
2022-11-23T01:20:07.927Z,98109.78
2022-11-23T01:21:09.544Z,98115.91
2022-11-23T01:22:13.298Z,98118.41
2022-11-23T01:23:17.302Z,98121.72
2022-11-23T01:24:21.585Z,98119.84
2022-11-23T01:25:23.080Z,98124.09
2022-11-23T01:26:25.202Z,98120.47
2022-11-23T01:27:26.709Z,98117.88
2022-11-23T01:28:28.165Z,98128.34
2022-11-23T01:29:29.789Z,98119.94
2022-11-23T01:30:35.363Z,98121.09
2022-11-23T01:31:40.585Z,98114.97
2022-11-23T01:32:48.690Z,98121.09
2022-11-23T01:33:59.038Z,98115.91
2022-11-23T01:35:00.579Z,98122.03
2022-11-23T01:36:33.114Z,98112.69
2022-11-23T01:37:34.644Z,98117.16
2022-11-23T01:38:36.192Z,98114.56
2022-11-23T01:39:37.720Z,98115.50
2022-11-23T01:40:43.208Z,98110.63
2022-11-23T01:41:45.516Z,98123.56
2022-11-23T01:42:58.985Z,98125.34
2022-11-23T01:44:01.499Z,98131.34
2022-11-23T01:45:30.912Z,98126.78
2022-11-23T01:46:32.478Z,98125.88
2022-11-23T01:47:35.706Z,98130.22
2022-11-23T01:49:04.986Z,98125.66
2022-11-23T01:50:06.901Z,98130.75
2022-11-23T01:51:14.844Z,98131.91
2022-11-23T01:52:21.012Z,98140.69
2022-11-23T01:53:22.716Z,98137.06
2022-11-23T01:54:38.838Z,98130.03
2022-11-23T01:55:40.987Z,98135.00
2022-11-23T01:56:46.289Z,98139.97
2022-11-23T01:57:48.131Z,98132.91
2022-11-23T01:58:53.786Z,98137.91
2022-11-23T01:59:56.585Z,98131.78
2022-11-23T02:00:58.658Z,98140.69
2022-11-23T02:02:00.342Z,98136.44
2022-11-23T02:03:04.410Z,98137.50
2022-11-23T02:04:08.701Z,98143.28
2022-11-23T02:05:11.556Z,98144.09
2022-11-23T02:06:18.797Z,98149.41
2022-11-23T02:07:21.879Z,98146.19
2022-11-23T02:08:23.425Z,98143.91
2022-11-23T02:09:25.105Z,98150.75
2022-11-23T02:10:26.919Z,98151.16
2022-11-23T02:11:28.486Z,98150.31
2022-11-23T02:12:29.978Z,98150.75
2022-11-23T02:13:31.793Z,98146.19
2022-11-23T02:14:33.350Z,98145.88
2022-11-23T02:15:35.513Z,98147.44
2022-11-23T02:16:38.004Z,98149.09
2022-11-23T02:17:39.664Z,98138.72
2022-11-23T02:18:44.331Z,98143.72
2022-11-23T02:20:05.115Z,98143.28
2022-11-23T02:21:06.767Z,98144.53
2022-11-23T02:22:36.595Z,98138.84
2022-11-23T02:23:59.142Z,98138.19
2022-11-23T02:25:05.052Z,98139.84
2022-11-23T02:26:08.457Z,98131.13
2022-11-23T02:27:10.060Z,98134.47
2022-11-23T02:28:19.352Z,98132.72
2022-11-23T02:29:24.405Z,98129.09
2022-11-23T02:30:27.005Z,98131.56
2022-11-23T02:31:28.482Z,98124.41
2022-11-23T02:32:30.903Z,98127.72
2022-11-23T02:33:32.395Z,98123.28
2022-11-23T02:34:33.924Z,98128.34
2022-11-23T02:35:35.637Z,98127.31
2022-11-23T02:36:44.648Z,98121.72
2022-11-23T02:37:46.212Z,98118.28
2022-11-23T02:38:47.894Z,98123.38
2022-11-23T02:39:51.783Z,98122.34
2022-11-23T02:40:53.284Z,98124.00
2022-11-23T02:41:57.021Z,98123.88
2022-11-23T02:43:00.087Z,98124.72
2022-11-23T02:44:07.513Z,98125.75
2022-11-23T02:45:21.320Z,98123.28
2022-11-23T02:46:22.827Z,98119.34
2022-11-23T02:47:24.369Z,98118.59
2022-11-23T02:48:26.123Z,98114.47
2022-11-23T02:49:27.944Z,98113.53
2022-11-23T02:50:29.953Z,98116.22
2022-11-23T02:51:31.440Z,98120.59
2022-11-23T02:52:32.905Z,98119.88
2022-11-23T02:53:34.433Z,98120.88
2022-11-23T02:54:35.962Z,98119.97
2022-11-23T02:55:37.804Z,98125.88
2022-11-23T02:56:39.324Z,98125.66
2022-11-23T02:57:40.861Z,98126.28
2022-11-23T02:58:44.980Z,98127.00
2022-11-23T02:59:47.081Z,98131.25
2022-11-23T03:00:48.657Z,98127.72
2022-11-23T03:01:54.366Z,98132.72
2022-11-23T03:02:55.865Z,98136.44
2022-11-23T03:03:57.329Z,98135.84
2022-11-23T03:04:59.774Z,98139.47
2022-11-23T03:06:01.279Z,98139.13
2022-11-23T03:07:02.786Z,98135.91
2022-11-23T03:08:05.496Z,98129.06
2022-11-23T03:09:07.776Z,98134.25
2022-11-23T03:10:10.119Z,98121.19
2022-11-23T03:11:11.666Z,98118.19
2022-11-23T03:12:13.634Z,98116.22
2022-11-23T03:13:15.166Z,98116.94
2022-11-23T03:14:16.658Z,98119.34
2022-11-23T03:15:32.794Z,98113.84
2022-11-23T03:16:34.648Z,98114.66
2022-11-23T03:17:36.759Z,98108.66
2022-11-23T03:18:38.313Z,98112.78
2022-11-23T03:19:39.985Z,98107.59
2022-11-23T03:20:41.698Z,98110.81
2022-11-23T03:21:43.245Z,98109.88
2022-11-23T03:22:44.762Z,98104.69
2022-11-23T03:23:47.969Z,98111.97
2022-11-23T03:24:49.562Z,98111.34
2022-11-23T03:25:56.286Z,98117.88
2022-11-23T03:26:58.797Z,98118.09
2022-11-23T03:28:00.277Z,98117.38
2022-11-23T03:29:02.232Z,98119.22
2022-11-23T03:30:05.961Z,98115.81
2022-11-23T03:31:09.006Z,98112.09
2022-11-23T03:32:12.347Z,98118.59
2022-11-23T03:33:17.377Z,98112.38
2022-11-23T03:34:18.943Z,98114.03
2022-11-23T03:35:20.517Z,98112.38
2022-11-23T03:36:44.719Z,98105.53
2022-11-23T03:37:46.538Z,98110.94
2022-11-23T03:38:48.028Z,98110.00
2022-11-23T03:40:03.299Z,98111.44
2022-11-23T03:41:24.924Z,98108.03
2022-11-23T03:42:27.942Z,98107.81
2022-11-23T03:43:30.377Z,98111.97
2022-11-23T03:44:32.225Z,98110.19
2022-11-23T03:45:33.714Z,98108.31
2022-11-23T03:46:35.229Z,98106.56
2022-11-23T03:47:36.901Z,98107.28
2022-11-23T03:48:38.596Z,98107.50
2022-11-23T03:49:40.379Z,98104.06
2022-11-23T03:50:44.476Z,98107.72
2022-11-23T03:51:46.029Z,98096.72
2022-11-23T03:52:49.661Z,98102.72
2022-11-23T03:53:51.267Z,98100.13
2022-11-23T03:54:52.833Z,98093.19
2022-11-23T03:55:54.510Z,98094.13
2022-11-23T03:56:55.979Z,98094.44
2022-11-23T03:57:57.606Z,98095.88
2022-11-23T03:58:59.108Z,98097.44
2022-11-23T04:00:00.691Z,98097.22
2022-11-23T04:01:02.365Z,98095.25
2022-11-23T04:02:03.881Z,98099.41
2022-11-23T04:03:10.139Z,98085.59
2022-11-23T04:04:30.254Z,98082.50
2022-11-23T04:05:54.740Z,98083.63
2022-11-23T04:07:18.844Z,98081.88
2022-11-23T04:08:25.398Z,98086.84
2022-11-23T04:09:28.354Z,98087.56
2022-11-23T04:10:38.732Z,98089.97
2022-11-23T04:11:48.328Z,98088.09
2022-11-23T04:12:53.344Z,98092.78
2022-11-23T04:13:55.104Z,98097.03
2022-11-23T04:14:57.156Z,98095.16
2022-11-23T04:15:58.991Z,98099.53
2022-11-23T04:17:00.582Z,98110.94
2022-11-23T04:18:02.713Z,98111.47
2022-11-23T04:19:04.250Z,98122.22
2022-11-23T04:20:06.748Z,98120.06
2022-11-23T04:21:08.377Z,98125.25
2022-11-23T04:22:10.070Z,98124.41
2022-11-23T04:23:15.737Z,98125.53
2022-11-23T04:24:17.525Z,98115.19
2022-11-23T04:25:19.373Z,98114.16
2022-11-23T04:26:22.853Z,98108.63
2022-11-23T04:27:24.352Z,98100.47
2022-11-23T04:28:25.885Z,98095.19
2022-11-23T04:29:28.053Z,98091.53
2022-11-23T04:30:29.513Z,98090.59
2022-11-23T04:31:32.599Z,98092.38
2022-11-23T04:32:46.584Z,98088.13
2022-11-23T04:33:49.037Z,98096.00
2022-11-23T04:34:52.941Z,98100.56
2022-11-23T04:35:54.300Z,98110.63
2022-11-23T04:36:55.792Z,98109.28
2022-11-23T04:38:04.182Z,98108.94
2022-11-23T04:39:07.118Z,98114.34
2022-11-23T04:40:16.209Z,98119.31
2022-11-23T04:41:26.146Z,98112.03
2022-11-23T04:42:28.129Z,98114.47
2022-11-23T04:43:32.934Z,98114.25
2022-11-23T04:44:34.785Z,98110.63
2022-11-23T04:45:40.113Z,98109.56
2022-11-23T04:46:47.632Z,98100.13
2022-11-23T04:47:49.129Z,98108.03
2022-11-23T04:48:51.561Z,98103.66
2022-11-23T04:49:53.130Z,98105.94
2022-11-23T04:50:55.943Z,98106.56
2022-11-23T04:52:05.252Z,98103.69
2022-11-23T04:53:11.718Z,98108.88
2022-11-23T04:54:18.882Z,98110.75
2022-11-23T04:55:25.392Z,98112.41
2022-11-23T04:56:31.380Z,98108.22
2022-11-23T04:57:33.033Z,98109.88
2022-11-23T04:58:34.862Z,98108.03
2022-11-23T04:59:36.739Z,98108.88
2022-11-23T05:00:39.486Z,98097.66
2022-11-23T05:01:41.270Z,98106.28
2022-11-23T05:03:15.250Z,98103.69
2022-11-23T05:04:20.143Z,98114.69
2022-11-23T05:05:22.339Z,98104.50
2022-11-23T05:06:23.894Z,98106.28
2022-11-23T05:07:25.597Z,98113.41
2022-11-23T05:08:32.629Z,98108.97
2022-11-23T05:09:49.296Z,98103.69
2022-11-23T05:10:52.849Z,98112.28
2022-11-23T05:11:54.390Z,98113.22
2022-11-23T05:12:56.736Z,98115.38
2022-11-23T05:13:58.202Z,98118.91
2022-11-23T05:14:59.804Z,98126.56
2022-11-23T05:16:08.550Z,98127.41
2022-11-23T05:17:10.576Z,98129.88
2022-11-23T05:18:13.456Z,98137.56
2022-11-23T05:19:14.974Z,98138.09
2022-11-23T05:20:16.731Z,98138.72
2022-11-23T05:21:22.670Z,98137.56
2022-11-23T05:22:24.542Z,98146.09
2022-11-23T05:23:26.073Z,98149.00
2022-11-23T05:24:28.429Z,98146.50
2022-11-23T05:25:39.063Z,98148.75
2022-11-23T05:26:42.484Z,98155.06
2022-11-23T05:27:43.987Z,98158.59
2022-11-23T05:28:46.183Z,98163.78
2022-11-23T05:29:49.308Z,98151.66
2022-11-23T05:30:50.788Z,98140.38
2022-11-23T05:31:52.285Z,98135.59
2022-11-23T05:32:53.785Z,98122.53
2022-11-23T05:33:56.749Z,98121.72
2022-11-23T05:35:09.893Z,98129.28
2022-11-23T05:36:12.392Z,98131.66
2022-11-23T05:37:15.746Z,98121.19
2022-11-23T05:38:25.901Z,98125.88
2022-11-23T05:39:27.444Z,98123.75
2022-11-23T05:40:28.986Z,98117.78
2022-11-23T05:41:33.389Z,98122.03
2022-11-23T05:42:37.338Z,98119.34
2022-11-23T05:43:47.333Z,98119.31
2022-11-23T05:44:54.044Z,98122.91
2022-11-23T05:46:02.480Z,98124.50
2022-11-23T05:47:06.857Z,98117.34
2022-11-23T05:48:09.771Z,98112.88
2022-11-23T05:49:23.205Z,98120.34
2022-11-23T05:50:27.313Z,98110.59
2022-11-23T05:51:48.736Z,98113.69
2022-11-23T05:52:51.087Z,98108.72
2022-11-23T05:53:53.013Z,98112.84
2022-11-23T05:55:03.753Z,98115.16
2022-11-23T05:56:05.629Z,98125.63
2022-11-23T05:57:12.780Z,98128.81
2022-11-23T05:58:15.726Z,98128.53
2022-11-23T05:59:17.293Z,98140.16
2022-11-23T06:00:23.536Z,98133.19
2022-11-23T06:01:32.904Z,98138.28
2022-11-23T06:02:40.893Z,98134.97
2022-11-23T06:03:42.857Z,98131.44
2022-11-23T06:04:44.887Z,98128.78
2022-11-23T06:05:50.568Z,98128.94
2022-11-23T06:06:57.504Z,98130.50
2022-11-23T06:07:59.124Z,98127.19
2022-11-23T06:09:02.499Z,98130.72
2022-11-23T06:10:06.469Z,98136.72
2022-11-23T06:11:09.812Z,98145.25
2022-11-23T06:12:11.273Z,98148.66
2022-11-23T06:13:12.884Z,98148.56
2022-11-23T06:14:14.730Z,98152.91
2022-11-23T06:15:19.195Z,98160.47
2022-11-23T06:16:22.053Z,98156.22
2022-11-23T06:17:36.258Z,98164.41
2022-11-23T06:18:40.539Z,98167.09
2022-11-23T06:19:44.107Z,98158.41
2022-11-23T06:20:46.583Z,98168.47
2022-11-23T06:21:50.561Z,98168.38
2022-11-23T06:22:55.163Z,98162.88
2022-11-23T06:23:58.790Z,98166.19
2022-11-23T06:25:01.052Z,98159.34
2022-11-23T06:26:12.788Z,98162.75
2022-11-23T06:27:17.906Z,98165.25
2022-11-23T06:28:20.145Z,98163.50
2022-11-23T06:29:23.520Z,98167.56
2022-11-23T06:30:25.584Z,98162.38
2022-11-23T06:31:27.349Z,98157.19
2022-11-23T06:32:28.906Z,98161.34
2022-11-23T06:33:30.839Z,98152.72
2022-11-23T06:34:33.326Z,98158.63
2022-11-23T06:35:34.925Z,98156.16
2022-11-23T06:36:36.452Z,98157.19
2022-11-23T06:37:37.953Z,98159.06
2022-11-23T06:38:39.459Z,98157.91
2022-11-23T06:39:54.529Z,98156.97
2022-11-23T06:41:01.537Z,98158.53
2022-11-23T06:42:30.951Z,98154.28
2022-11-23T06:43:26.994Z,98161.22
2022-11-23T06:44:28.349Z,98170.66
2022-11-23T06:45:29.806Z,98174.72
2022-11-23T06:46:35.123Z,98174.41
2022-11-23T06:47:36.727Z,98169.03
2022-11-23T06:48:39.093Z,98174.00
2022-11-23T06:49:41.739Z,98176.59
2022-11-23T06:50:50.519Z,98169.34
2022-11-23T06:51:53.799Z,98176.56
2022-11-23T06:52:56.315Z,98175.63
2022-11-23T06:54:06.113Z,98182.25
2022-11-23T06:55:08.612Z,98179.75
2022-11-23T06:56:10.132Z,98188.47
2022-11-23T06:57:11.699Z,98181.63
2022-11-23T06:58:13.126Z,98183.28
2022-11-23T06:59:14.501Z,98172.81
2022-11-23T07:00:17.864Z,98177.91
2022-11-23T07:01:19.374Z,98186.59
2022-11-23T07:02:41.052Z,98184.13
2022-11-23T07:03:42.952Z,98184.00
2022-11-23T07:04:55.047Z,98178.75
2022-11-23T07:05:56.484Z,98180.19
2022-11-23T07:07:01.560Z,98176.25
2022-11-23T07:08:16.465Z,98177.38
2022-11-23T07:09:17.917Z,98175.50
2022-11-23T07:10:27.220Z,98175.72
2022-11-23T07:11:34.907Z,98188.25
2022-11-23T07:12:36.403Z,98191.28
2022-11-23T07:13:38.252Z,98196.38
2022-11-23T07:14:39.682Z,98185.16
2022-11-23T07:15:41.709Z,98192.94
2022-11-23T07:16:43.082Z,98186.00
2022-11-23T07:17:44.690Z,98192.00
2022-11-23T07:18:46.191Z,98198.03
2022-11-23T07:19:47.540Z,98192.13
2022-11-23T07:20:48.944Z,98197.94
2022-11-23T07:21:50.320Z,98199.59
2022-11-23T07:23:01.912Z,98201.25
2022-11-23T07:24:03.459Z,98196.88
2022-11-23T07:25:05.448Z,98205.50
2022-11-23T07:26:08.048Z,98200.41
2022-11-23T07:27:09.489Z,98203.94
2022-11-23T07:28:11.857Z,98204.56
2022-11-23T07:29:13.243Z,98205.09
2022-11-23T07:30:14.970Z,98209.34
2022-11-23T07:31:16.358Z,98206.16
2022-11-23T07:32:17.736Z,98199.91
2022-11-23T07:33:19.152Z,98204.06
2022-11-23T07:34:21.144Z,98199.59
2022-11-23T07:35:22.513Z,98202.09
2022-11-23T07:36:23.885Z,98197.72
2022-11-23T07:37:25.285Z,98192.53
2022-11-23T07:38:26.648Z,98189.94
2022-11-23T07:39:48.792Z,98190.81
2022-11-23T07:40:49.567Z,98183.88
2022-11-23T07:42:31.142Z,98185.41
2022-11-23T07:43:27.205Z,98181.28
2022-11-23T07:44:28.787Z,98180.34
2022-11-23T07:45:31.384Z,98182.09
2022-11-23T07:46:34.402Z,98189.78
2022-11-23T07:47:35.794Z,98180.22
2022-11-23T07:48:37.170Z,98186.88
2022-11-23T07:49:38.525Z,98190.06
2022-11-23T07:50:40.024Z,98182.19
2022-11-23T07:51:41.369Z,98194.13
2022-11-23T07:52:42.722Z,98191.53
2022-11-23T07:53:44.128Z,98186.44
2022-11-23T07:54:45.513Z,98190.81
2022-11-23T07:55:46.926Z,98181.25
2022-11-23T07:56:48.298Z,98189.75
2022-11-23T07:57:53.557Z,98190.47
2022-11-23T07:58:54.925Z,98192.97
2022-11-23T07:59:56.262Z,98196.41
2022-11-23T08:00:57.651Z,98194.44
2022-11-23T08:01:59.111Z,98202.97
2022-11-23T08:04:21.887Z,98211.13
2022-11-23T08:05:23.295Z,98210.50
2022-11-23T08:06:24.689Z,98212.47
2022-11-23T08:07:26.047Z,98216.94
2022-11-23T08:08:27.481Z,98217.06
2022-11-23T08:09:28.821Z,98220.59
2022-11-23T08:10:30.977Z,98211.97
2022-11-23T08:11:32.339Z,98217.06
2022-11-23T08:12:33.731Z,98208.53
2022-11-23T08:13:35.297Z,98212.81
2022-11-23T08:14:36.688Z,98211.03
2022-11-23T08:15:38.057Z,98211.88
2022-11-23T08:16:39.424Z,98208.22
2022-11-23T08:17:40.791Z,98205.53
2022-11-23T08:18:42.143Z,98203.66
2022-11-23T08:19:43.496Z,98210.31
2022-11-23T08:20:44.864Z,98209.19
2022-11-23T08:21:46.350Z,98209.81
2022-11-23T08:22:47.704Z,98215.72
2022-11-23T08:23:49.050Z,98223.38
2022-11-23T08:24:50.423Z,98213.84
2022-11-23T08:25:51.836Z,98207.63
2022-11-23T08:26:53.198Z,98201.81
2022-11-23T08:28:02.427Z,98198.91
2022-11-23T08:29:04.466Z,98200.13
2022-11-23T08:30:06.217Z,98198.38
2022-11-23T08:31:08.492Z,98200.69
2022-11-23T08:32:09.867Z,98196.31
2022-11-23T08:33:12.042Z,98203.06
2022-11-23T08:34:13.517Z,98206.16
2022-11-23T08:35:14.947Z,98189.56
2022-11-23T08:36:16.424Z,98190.28
2022-11-23T08:37:17.833Z,98199.63
2022-11-23T08:38:19.190Z,98197.03
2022-11-23T08:39:20.556Z,98190.19
2022-11-23T08:40:25.418Z,98191.13
2022-11-23T08:41:27.101Z,98202.22
2022-11-23T08:42:28.455Z,98197.03
2022-11-23T08:43:29.801Z,98201.91
2022-11-23T08:44:31.403Z,98197.44
2022-11-23T08:45:33.003Z,98198.47
2022-11-23T08:46:34.394Z,98182.81
2022-11-23T08:47:35.836Z,98190.06
2022-11-23T08:48:37.211Z,98190.19
2022-11-23T08:49:38.561Z,98186.66
2022-11-23T08:50:40.086Z,98194.34
2022-11-23T08:51:44.528Z,98195.16
2022-11-23T08:52:54.653Z,98197.03
2022-11-23T08:53:56.020Z,98193.81
2022-11-23T08:54:57.329Z,98188.75
2022-11-23T08:56:02.435Z,98199.31
2022-11-23T08:57:03.847Z,98189.66
2022-11-23T08:58:09.075Z,98191.44
2022-11-23T08:59:14.449Z,98183.66
2022-11-23T09:00:16.289Z,98181.16
2022-11-23T09:01:17.901Z,98177.75
2022-11-23T09:02:19.345Z,98182.09
2022-11-23T09:03:20.702Z,98185.53
2022-11-23T09:04:22.145Z,98189.66
2022-11-23T09:05:23.555Z,98185.31
2022-11-23T09:06:24.921Z,98182.22
2022-11-23T09:07:26.343Z,98178.69
2022-11-23T09:08:28.834Z,98184.69
2022-11-23T09:09:30.200Z,98180.97
2022-11-23T09:10:31.609Z,98182.72
2022-11-23T09:11:32.957Z,98180.75
2022-11-23T09:12:34.358Z,98185.72
2022-11-23T09:13:36.401Z,98182.09
2022-11-23T09:14:37.780Z,98183.53
2022-11-23T09:15:39.185Z,98175.66
2022-11-23T09:16:40.607Z,98182.72
2022-11-23T09:17:41.977Z,98171.28
2022-11-23T09:18:43.363Z,98169.63
2022-11-23T09:19:44.771Z,98168.28
2022-11-23T09:20:46.145Z,98167.16
2022-11-23T09:21:47.533Z,98160.41
2022-11-23T09:22:52.674Z,98159.78
2022-11-23T09:23:54.009Z,98159.69
2022-11-23T09:24:55.451Z,98153.75
2022-11-23T09:26:00.088Z,98154.50
2022-11-23T09:27:01.449Z,98152.06
2022-11-23T09:28:02.841Z,98157.63
2022-11-23T09:29:05.084Z,98158.94
2022-11-23T09:30:06.779Z,98157.91
2022-11-23T09:31:08.138Z,98158.03
2022-11-23T09:32:09.645Z,98160.50
2022-11-23T09:33:11.009Z,98159.78
2022-11-23T09:34:13.009Z,98159.69
2022-11-23T09:35:14.440Z,98158.31
2022-11-23T09:36:15.786Z,98160.69
2022-11-23T09:37:17.156Z,98164.84
2022-11-23T09:38:18.522Z,98160.47
2022-11-23T09:39:19.900Z,98159.41
2022-11-23T09:40:21.466Z,98164.28
2022-11-23T09:41:41.401Z,98163.88
2022-11-23T09:42:45.811Z,98168.63
2022-11-23T09:44:03.089Z,98163.25
2022-11-23T09:45:16.494Z,98161.03
2022-11-23T09:46:36.719Z,98161.75
2022-11-23T09:47:49.288Z,98161.84
2022-11-23T09:49:00.200Z,98159.81
2022-11-23T09:50:07.693Z,98155.66
2022-11-23T09:51:15.104Z,98156.38
2022-11-23T09:52:21.073Z,98150.03
2022-11-23T09:53:29.590Z,98152.72
2022-11-23T09:54:33.648Z,98149.19
2022-11-23T09:55:46.685Z,98147.53
2022-11-23T09:56:49.104Z,98149.19
2022-11-23T09:58:00.479Z,98146.59
2022-11-23T09:59:22.045Z,98142.34
2022-11-23T10:00:23.594Z,98144.31
2022-11-23T10:01:25.629Z,98139.75
2022-11-23T10:02:28.493Z,98137.78
2022-11-23T10:03:32.859Z,98142.88
2022-11-23T10:04:35.251Z,98145.25
2022-11-23T10:05:39.189Z,98143.47
2022-11-23T10:06:42.807Z,98144.41
2022-11-23T10:07:44.252Z,98146.41
2022-11-23T10:08:57.570Z,98142.13
2022-11-23T10:10:13.924Z,98145.25
2022-11-23T10:11:50.919Z,98139.03
2022-11-23T10:12:59.798Z,98138.00
2022-11-23T10:14:24.345Z,98146.50
2022-11-23T10:15:33.820Z,98140.47
2022-11-23T10:17:00.962Z,98142.34
2022-11-23T10:18:02.300Z,98135.09
2022-11-23T10:19:24.456Z,98132.13
2022-11-23T10:20:49.175Z,98132.03
2022-11-23T10:22:05.809Z,98136.50
2022-11-23T10:23:17.144Z,98135.47
2022-11-23T10:24:20.769Z,98129.09
2022-11-23T10:25:23.004Z,98127.44
2022-11-23T10:26:29.448Z,98126.75
2022-11-23T10:27:31.090Z,98128.41
2022-11-23T10:28:32.603Z,98124.56
2022-11-23T10:29:37.571Z,98125.63
2022-11-23T10:30:39.050Z,98126.44
2022-11-23T10:31:43.455Z,98128.22
2022-11-23T10:32:50.236Z,98122.69
2022-11-23T10:33:58.266Z,98117.16
2022-11-23T10:35:05.659Z,98117.69
2022-11-23T10:36:08.967Z,98119.44
2022-11-23T10:37:14.189Z,98122.97
2022-11-23T10:38:19.371Z,98118.72
2022-11-23T10:39:21.060Z,98124.75
2022-11-23T10:40:24.064Z,98117.69
2022-11-23T10:41:25.564Z,98113.44
2022-11-23T10:42:35.901Z,98111.53
2022-11-23T10:44:00.260Z,98111.53
2022-11-23T10:45:01.604Z,98123.25
2022-11-23T10:46:21.763Z,98124.91
2022-11-23T10:47:33.394Z,98120.53
2022-11-23T10:48:36.062Z,98117.59
2022-11-23T10:49:37.456Z,98116.66
2022-11-23T10:50:39.218Z,98119.06
2022-11-23T10:51:40.898Z,98119.25
2022-11-23T10:52:49.441Z,98118.06
2022-11-23T10:53:53.289Z,98114.63
2022-11-23T10:54:55.953Z,98121.38
2022-11-23T10:55:59.403Z,98126.34
2022-11-23T10:57:02.340Z,98117.28
2022-11-23T10:58:03.743Z,98119.53
2022-11-23T10:59:05.145Z,98120.38
2022-11-23T11:00:09.299Z,98115.91
2022-11-23T11:01:14.799Z,98120.03
2022-11-23T11:02:16.168Z,98116.72
2022-11-23T11:03:24.356Z,98116.00
2022-11-23T11:04:25.721Z,98118.84
2022-11-23T11:06:16.875Z,98121.31
2022-11-23T11:07:10.853Z,98113.06
2022-11-23T11:08:21.706Z,98111.41
2022-11-23T11:09:24.230Z,98118.28
2022-11-23T11:10:42.486Z,98114.84
2022-11-23T11:11:47.814Z,98107.78
2022-11-23T11:12:51.301Z,98105.19
2022-11-23T11:14:01.386Z,98105.91
2022-11-23T11:15:12.355Z,98109.91
2022-11-23T11:16:32.743Z,98104.00
2022-11-23T11:17:34.599Z,98109.19
2022-11-23T11:18:39.535Z,98101.16
2022-11-23T11:19:40.965Z,98100.38
2022-11-23T11:20:44.823Z,98096.91
2022-11-23T11:21:46.196Z,98095.16
2022-11-23T11:22:47.975Z,98092.44
2022-11-23T11:23:52.262Z,98085.16
2022-11-23T11:24:54.255Z,98097.53
2022-11-23T11:26:03.307Z,98092.34
2022-11-23T11:27:13.252Z,98095.16
2022-11-23T11:28:22.513Z,98096.69
2022-11-23T11:29:39.187Z,98106.75
2022-11-23T11:30:54.680Z,98102.16
2022-11-23T11:32:08.214Z,98100.97
2022-11-23T11:33:14.737Z,98105.97
2022-11-23T11:34:18.968Z,98109.16
2022-11-23T11:35:25.029Z,98106.44
2022-11-23T11:36:28.861Z,98103.00
2022-11-23T11:37:30.177Z,98094.63
2022-11-23T11:38:34.496Z,98095.44
2022-11-23T11:39:41.797Z,98099.50
2022-11-23T11:40:50.309Z,98099.34
2022-11-23T11:41:52.659Z,98092.50
2022-11-23T11:42:59.109Z,98095.81
2022-11-23T11:44:08.433Z,98092.25
2022-11-23T11:45:17.394Z,98098.19
2022-11-23T11:46:32.997Z,98094.66
2022-11-23T11:47:37.305Z,98105.25
2022-11-23T11:48:51.644Z,98101.72
2022-11-23T11:49:55.970Z,98103.84
2022-11-23T11:51:00.683Z,98104.09
2022-11-23T11:52:08.621Z,98111.88
2022-11-23T11:53:15.152Z,98102.44
2022-11-23T11:54:28.592Z,98106.34
2022-11-23T11:55:51.979Z,98106.22
2022-11-23T11:57:01.845Z,98101.94
2022-11-23T11:58:05.273Z,98101.94
2022-11-23T11:59:09.427Z,98110.59
2022-11-23T12:00:13.985Z,98109.28
2022-11-23T12:01:36.470Z,98111.97
2022-11-23T12:02:53.059Z,98107.50
2022-11-23T12:03:59.516Z,98114.25
2022-11-23T12:05:19.635Z,98106.22
2022-11-23T12:06:26.764Z,98111.06
2022-11-23T12:07:54.689Z,98111.41
2022-11-23T12:09:01.350Z,98103.75
2022-11-23T12:10:19.917Z,98107.38
2022-11-23T12:11:21.327Z,98102.91
2022-11-23T12:12:28.265Z,98107.16
2022-11-23T12:13:31.057Z,98112.50
2022-11-23T12:14:32.758Z,98115.91
2022-11-23T12:15:53.356Z,98124.75
2022-11-23T12:17:30.847Z,98118.72
2022-11-23T12:18:26.922Z,98123.94
2022-11-23T12:19:39.269Z,98115.06
2022-11-23T12:20:58.900Z,98118.59
2022-11-23T12:22:29.409Z,98120.00
2022-11-23T12:23:49.744Z,98127.47
2022-11-23T12:24:54.225Z,98122.03
2022-11-23T12:26:07.506Z,98116.13
2022-11-23T12:27:27.651Z,98115.91
2022-11-23T12:28:42.336Z,98115.09
2022-11-23T12:29:55.059Z,98125.25
2022-11-23T12:30:59.422Z,98125.97
2022-11-23T12:32:06.714Z,98125.84
2022-11-23T12:33:14.195Z,98124.06
2022-11-23T12:34:34.217Z,98118.59
2022-11-23T12:35:35.702Z,98125.59
2022-11-23T12:36:42.817Z,98123.69
2022-11-23T12:37:44.134Z,98118.50
2022-11-23T12:38:55.285Z,98120.16
2022-11-23T12:39:59.718Z,98127.84
2022-11-23T12:41:01.042Z,98127.25
2022-11-23T12:42:17.636Z,98127.47
2022-11-23T12:43:41.720Z,98121.34